createdAt,value
2018-02-06T00:00:04.957Z,100667
2018-02-06T00:01:10.114Z,100670
2018-02-06T00:02:15.598Z,100664
2018-02-06T00:03:21.073Z,100659
2018-02-06T00:04:27.364Z,100664
2018-02-06T00:05:32.833Z,100662
2018-02-06T00:06:38.373Z,100662
2018-02-06T00:07:43.558Z,100659
2018-02-06T00:08:49.049Z,100639
2018-02-06T00:09:54.756Z,100651
2018-02-06T00:10:59.949Z,100659
2018-02-06T00:12:05.123Z,100651
2018-02-06T00:13:09.902Z,100645
2018-02-06T00:14:15.373Z,100642
2018-02-06T00:15:20.838Z,100642
2018-02-06T00:16:41.005Z,100639
2018-02-06T00:17:45.892Z,100648
2018-02-06T00:18:51.476Z,100633
2018-02-06T00:19:56.404Z,100631
2018-02-06T00:21:01.869Z,100636
2018-02-06T00:22:07.456Z,100636
2018-02-06T00:23:12.629Z,100628
2018-02-06T00:24:18.088Z,100625
2018-02-06T00:25:23.259Z,100628
2018-02-06T00:26:28.446Z,100631
2018-02-06T00:27:34.406Z,100622
2018-02-06T00:28:39.902Z,100619
2018-02-06T00:29:44.235Z,100625
2018-02-06T00:30:49.948Z,100619
2018-02-06T00:31:55.426Z,100619
2018-02-06T00:33:00.610Z,100610
2018-02-06T00:34:05.968Z,100607
2018-02-06T00:35:11.251Z,100596
2018-02-06T00:36:16.736Z,100602
2018-02-06T00:37:22.495Z,100602
2018-02-06T00:38:27.417Z,100593
2018-02-06T00:39:32.845Z,100593
2018-02-06T00:40:37.779Z,100590
2018-02-06T00:41:42.705Z,100582
2018-02-06T00:42:48.578Z,100579
2018-02-06T00:43:54.054Z,100582
2018-02-06T00:44:59.226Z,100579
2018-02-06T00:46:04.984Z,100590
2018-02-06T00:47:09.630Z,100582
2018-02-06T00:48:15.087Z,100570
2018-02-06T00:49:20.247Z,100570
2018-02-06T00:50:25.431Z,100573
2018-02-06T00:51:31.270Z,100565
2018-02-06T00:52:36.816Z,100565
2018-02-06T00:53:42.051Z,100559
2018-02-06T00:54:47.369Z,100562
2018-02-06T00:55:51.996Z,100556
2018-02-06T00:56:57.472Z,100559
2018-02-06T00:58:03.296Z,100553
2018-02-06T00:59:08.198Z,100559
2018-02-06T01:00:13.094Z,100556
2018-02-06T01:01:18.815Z,100553
2018-02-06T01:02:23.996Z,100539
2018-02-06T01:03:29.608Z,100544
2018-02-06T01:04:35.077Z,100547
2018-02-06T01:05:39.707Z,100541
2018-02-06T01:06:45.147Z,100541
2018-02-06T01:07:49.777Z,100544
2018-02-06T01:08:55.237Z,100544
2018-02-06T01:10:01.152Z,100541
2018-02-06T01:11:06.382Z,100527
2018-02-06T01:12:11.839Z,100524
2018-02-06T01:13:17.569Z,100539
2018-02-06T01:14:22.752Z,100536
2018-02-06T01:15:28.377Z,100536
2018-02-06T01:16:33.574Z,100527
2018-02-06T01:17:39.033Z,100518
2018-02-06T01:18:44.183Z,100527
2018-02-06T01:19:49.677Z,100530
2018-02-06T01:20:55.184Z,100527
2018-02-06T01:22:01.045Z,100521
2018-02-06T01:23:06.238Z,100512
2018-02-06T01:24:11.731Z,100512
2018-02-06T01:25:17.275Z,100521
2018-02-06T01:26:21.872Z,100507
2018-02-06T01:27:27.554Z,100521
2018-02-06T01:28:33.012Z,100510
2018-02-06T01:29:38.470Z,100515
2018-02-06T01:30:44.428Z,100507
2018-02-06T01:31:49.892Z,100507
2018-02-06T01:32:55.342Z,100504
2018-02-06T01:34:01.081Z,100512
2018-02-06T01:35:06.010Z,100504
2018-02-06T01:36:11.184Z,100501
2018-02-06T01:37:16.961Z,100501
2018-02-06T01:38:21.863Z,100504
2018-02-06T01:39:27.071Z,100498
2018-02-06T01:40:32.573Z,100501
2018-02-06T01:41:37.481Z,100498
2018-02-06T01:42:43.157Z,100504
2018-02-06T01:43:48.341Z,100486
2018-02-06T01:44:53.817Z,100489
2018-02-06T01:45:58.969Z,100483
2018-02-06T01:47:04.437Z,100483
2018-02-06T01:48:09.355Z,100492
2018-02-06T01:49:15.071Z,100492
2018-02-06T01:50:20.541Z,100476
2018-02-06T01:51:40.932Z,100486
2018-02-06T01:52:45.831Z,100483
2018-02-06T01:53:49.884Z,100478
2018-02-06T01:54:55.227Z,100478
2018-02-06T01:56:00.459Z,100473
2018-02-06T01:57:05.368Z,100461
2018-02-06T01:58:11.176Z,100461
2018-02-06T01:59:16.083Z,100473
2018-02-06T02:00:21.258Z,100464
2018-02-06T02:01:26.854Z,100458
2018-02-06T02:02:31.755Z,100467
2018-02-06T02:03:37.310Z,100461
2018-02-06T02:04:42.777Z,100461
2018-02-06T02:05:48.229Z,100452
2018-02-06T02:06:53.953Z,100452
2018-02-06T02:07:59.455Z,100447
2018-02-06T02:09:04.683Z,100447
2018-02-06T02:10:09.302Z,100450
2018-02-06T02:11:14.771Z,100450
2018-02-06T02:12:19.951Z,100450
2018-02-06T02:13:25.422Z,100444
2018-02-06T02:14:30.338Z,100441
2018-02-06T02:15:36.691Z,100438
2018-02-06T02:16:41.863Z,100444
2018-02-06T02:17:47.325Z,100447
2018-02-06T02:18:53.161Z,100441
2018-02-06T02:19:58.661Z,100441
2018-02-06T02:21:04.143Z,100435
2018-02-06T02:22:09.336Z,100435
2018-02-06T02:23:14.786Z,100435
2018-02-06T02:24:19.960Z,100435
2018-02-06T02:25:25.429Z,100432
2018-02-06T02:26:30.625Z,100432
2018-02-06T02:27:36.527Z,100435
2018-02-06T02:28:42.002Z,100429
2018-02-06T02:29:47.460Z,100418
2018-02-06T02:30:53.200Z,100429
2018-02-06T02:31:58.406Z,100418
2018-02-06T02:33:03.604Z,100423
2018-02-06T02:34:09.426Z,100421
2018-02-06T02:35:14.602Z,100426
2018-02-06T02:36:20.075Z,100421
2018-02-06T02:37:40.622Z,100409
2018-02-06T02:38:46.108Z,100423
2018-02-06T02:39:51.545Z,100426
2018-02-06T02:40:57.013Z,100412
2018-02-06T04:38:57.753Z,100286
2018-02-06T04:40:03.294Z,100277
2018-02-06T04:41:07.942Z,100283
2018-02-06T04:42:12.844Z,100286
2018-02-06T04:43:18.574Z,100283
2018-02-06T04:44:23.773Z,100271
2018-02-06T04:45:29.420Z,100274
2018-02-06T04:46:34.892Z,100283
2018-02-06T04:47:40.085Z,100283
2018-02-06T04:48:46.133Z,100274
2018-02-06T04:49:51.606Z,100266
2018-02-06T04:50:56.790Z,100266
2018-02-06T04:52:02.561Z,100271
2018-02-06T04:53:07.219Z,100263
2018-02-06T04:54:12.420Z,100269
2018-02-06T04:55:17.852Z,100263
2018-02-06T04:56:23.343Z,100266
2018-02-06T04:57:29.060Z,100266
2018-02-06T04:58:34.241Z,100271
2018-02-06T04:59:39.447Z,100271
2018-02-06T05:00:45.173Z,100266
2018-02-06T05:01:50.638Z,100274
2018-02-06T05:02:56.119Z,100260
2018-02-06T05:04:01.987Z,100266
2018-02-06T05:05:07.158Z,100260
2018-02-06T05:06:12.063Z,100269
2018-02-06T05:07:17.550Z,100266
2018-02-06T05:08:22.500Z,100266
2018-02-06T05:09:27.707Z,100269
2018-02-06T05:10:32.645Z,100266
2018-02-06T05:11:38.106Z,100271
2018-02-06T05:12:43.755Z,100277
2018-02-06T05:13:49.212Z,100280
2018-02-06T05:14:54.390Z,100269
2018-02-06T05:16:00.553Z,100266
2018-02-06T05:17:05.442Z,100271
2018-02-06T05:18:10.902Z,100254
2018-02-06T05:19:15.839Z,100266
2018-02-06T05:20:21.315Z,100254
2018-02-06T05:21:26.794Z,100266
2018-02-06T05:22:31.959Z,100251
2018-02-06T05:23:37.446Z,100245
2018-02-06T05:24:43.002Z,100254
2018-02-06T05:25:48.545Z,100248
2018-02-06T05:26:53.467Z,100260
2018-02-06T05:27:59.170Z,100248
2018-02-06T05:29:04.635Z,100240
2018-02-06T05:30:10.153Z,100248
2018-02-06T05:31:15.648Z,100242
2018-02-06T05:32:21.341Z,100242
2018-02-06T05:33:26.803Z,100248
2018-02-06T05:34:31.731Z,100237
2018-02-06T05:35:36.624Z,100240
2018-02-06T05:36:41.988Z,100242
2018-02-06T05:37:47.193Z,100231
2018-02-06T05:38:52.672Z,100242
2018-02-06T05:39:58.642Z,100242
2018-02-06T05:41:04.124Z,100231
2018-02-06T05:42:09.339Z,100234
2018-02-06T05:43:15.045Z,100234
2018-02-06T05:44:20.515Z,100225
2018-02-06T05:45:40.619Z,100231
2018-02-06T05:46:46.077Z,100234
2018-02-06T05:47:51.250Z,100225
2018-02-06T05:48:56.959Z,100222
2018-02-06T05:50:02.145Z,100211
2018-02-06T05:51:06.485Z,100213
2018-02-06T05:52:11.068Z,100219
2018-02-06T05:53:16.255Z,100213
2018-02-06T05:54:21.727Z,100213
2018-02-06T05:55:27.648Z,100208
2018-02-06T05:56:33.149Z,100228
2018-02-06T05:57:38.864Z,100216
2018-02-06T05:58:44.337Z,100211
2018-02-06T05:59:49.789Z,100216
2018-02-06T06:00:55.521Z,100205
2018-02-06T06:02:00.709Z,100208
2018-02-06T06:03:05.888Z,100199
2018-02-06T06:04:11.720Z,100208
2018-02-06T06:05:16.904Z,100202
2018-02-06T06:06:22.365Z,100202
2018-02-06T06:07:27.513Z,100205
2018-02-06T06:08:32.982Z,100208
2018-02-06T06:09:38.530Z,100208
2018-02-06T06:10:43.734Z,100211
2018-02-06T06:11:49.197Z,100205
2018-02-06T06:12:54.726Z,100196
2018-02-06T06:14:00.206Z,100202
2018-02-06T06:15:05.697Z,100196
2018-02-06T06:16:11.139Z,100199
2018-02-06T06:17:16.324Z,100193
2018-02-06T06:18:21.802Z,100196
2018-02-06T06:19:27.581Z,100196
2018-02-06T06:20:32.796Z,100202
2018-02-06T06:21:38.283Z,100199
2018-02-06T06:22:43.768Z,100193
2018-02-06T06:23:49.227Z,100193
2018-02-06T06:24:54.948Z,100184
2018-02-06T06:26:00.439Z,100182
2018-02-06T06:27:05.616Z,100179
2018-02-06T06:28:11.354Z,100179
2018-02-06T06:29:16.548Z,100173
2018-02-06T06:30:22.051Z,100176
2018-02-06T06:31:27.509Z,100179
2018-02-06T06:32:32.974Z,100173
2018-02-06T06:33:38.572Z,100182
2018-02-06T06:34:44.032Z,100173
2018-02-06T06:35:49.213Z,100170
2018-02-06T06:36:54.935Z,100170
2018-02-06T06:38:00.118Z,100176
2018-02-06T06:39:05.037Z,100161
2018-02-06T06:40:10.214Z,100167
2018-02-06T06:41:15.690Z,100173
2018-02-06T06:42:21.206Z,100182
2018-02-06T06:43:26.677Z,100173
2018-02-06T06:44:32.090Z,100170
2018-02-06T06:45:38.002Z,100170
2018-02-06T06:46:43.215Z,100179
2018-02-06T06:47:48.751Z,100176
2018-02-06T06:48:54.461Z,100155
2018-02-06T06:49:59.941Z,100167
2018-02-06T06:51:04.857Z,100167
2018-02-06T06:52:10.769Z,100161
2018-02-06T06:53:15.954Z,100153
2018-02-06T06:54:21.424Z,100161
2018-02-06T06:55:27.208Z,100161
2018-02-06T06:56:32.668Z,100158
2018-02-06T06:57:38.223Z,100167
2018-02-06T06:58:43.147Z,100150
2018-02-06T06:59:48.609Z,100150
2018-02-06T07:00:54.328Z,100152
2018-02-06T07:01:59.262Z,100164
2018-02-06T07:03:04.163Z,100161
2018-02-06T07:04:09.891Z,100164
2018-02-06T07:05:14.795Z,100158
2018-02-06T07:06:19.974Z,100167
2018-02-06T07:07:25.416Z,100164
2018-02-06T07:08:30.882Z,100150
2018-02-06T07:09:36.061Z,100152
2018-02-06T07:10:41.258Z,100158
2018-02-06T07:11:46.734Z,100161
2018-02-06T07:12:51.933Z,100150
2018-02-06T07:13:57.116Z,100150
2018-02-06T07:15:02.309Z,100167
2018-02-06T07:16:07.560Z,100153
2018-02-06T07:17:12.749Z,100150
2018-02-06T07:18:17.934Z,100155
2018-02-06T07:19:23.756Z,100153
2018-02-06T07:20:28.372Z,100145
2018-02-06T07:21:33.902Z,100145
2018-02-06T07:22:39.365Z,100147
2018-02-06T07:23:44.823Z,100145
2018-02-06T07:24:50.007Z,100147
2018-02-06T07:25:55.497Z,100142
2018-02-06T07:27:00.935Z,100142
2018-02-06T07:28:06.749Z,100145
2018-02-06T07:29:11.924Z,100139
2018-02-06T07:30:17.398Z,100142
2018-02-06T07:31:22.809Z,100136
2018-02-06T07:32:28.431Z,100136
2018-02-06T07:33:34.250Z,100136
2018-02-06T07:34:39.431Z,100139
2018-02-06T07:35:44.674Z,100133
2018-02-06T07:36:50.173Z,100127
2018-02-06T07:37:55.640Z,100133
2018-02-06T07:39:00.822Z,100130
2018-02-06T07:40:06.653Z,100139
2018-02-06T07:41:11.316Z,100133
2018-02-06T07:42:16.534Z,100139
2018-02-06T07:43:22.374Z,100136
2018-02-06T07:44:27.292Z,100147
2018-02-06T07:45:32.918Z,100133
2018-02-06T07:46:37.810Z,100136
2018-02-06T07:47:42.995Z,100136
2018-02-06T07:48:48.800Z,100133
2018-02-06T07:49:54.277Z,100130
2018-02-06T07:50:59.176Z,100139
2018-02-06T07:52:03.796Z,100127
2018-02-06T07:53:08.386Z,100127
2018-02-06T07:54:13.843Z,100122
2018-02-06T07:55:19.602Z,100127
2018-02-06T07:56:24.500Z,100124
2018-02-06T07:57:30.184Z,100113
2018-02-06T07:58:35.371Z,100119
2018-02-06T07:59:40.841Z,100130
2018-02-06T08:00:46.278Z,100122
2018-02-06T08:01:51.454Z,100130
2018-02-06T08:02:56.404Z,100119
2018-02-06T08:04:01.872Z,100122
2018-02-06T08:05:07.077Z,100122
2018-02-06T08:06:12.296Z,100124
2018-02-06T08:07:18.052Z,100122
2018-02-06T08:08:23.522Z,100124
2018-02-06T08:09:28.846Z,100127
2018-02-06T08:10:34.039Z,100125
2018-02-06T08:11:39.530Z,100119
2018-02-06T08:12:45.004Z,100125
2018-02-06T08:13:50.196Z,100127
2018-02-06T08:14:55.663Z,100113
2018-02-06T08:16:01.324Z,100113
2018-02-06T08:17:05.941Z,100107
2018-02-06T08:18:11.067Z,100116
2018-02-06T08:19:16.226Z,100119
2018-02-06T08:20:21.687Z,100119
2018-02-06T08:21:26.768Z,100110
2018-02-06T08:22:31.684Z,100116
2018-02-06T08:23:36.853Z,100113
2018-02-06T08:24:42.031Z,100116
2018-02-06T08:25:47.681Z,100116
2018-02-06T08:26:53.135Z,100119
2018-02-06T08:27:58.944Z,100116
2018-02-06T08:29:04.432Z,100107
2018-02-06T08:30:09.619Z,100113
2018-02-06T08:31:14.812Z,100119
2018-02-06T08:32:19.977Z,100116
2018-02-06T08:33:39.786Z,100116
2018-02-06T08:34:45.244Z,100101
2018-02-06T08:35:50.729Z,100107
2018-02-06T08:36:55.904Z,100107
2018-02-06T08:38:01.409Z,100113
2018-02-06T08:39:06.872Z,100110
2018-02-06T08:40:12.059Z,100110
2018-02-06T08:41:17.556Z,100107
2018-02-06T08:42:23.128Z,100104
2018-02-06T08:43:43.239Z,100098
2018-02-06T08:44:48.985Z,100101
2018-02-06T08:45:54.715Z,100113
2018-02-06T08:47:00.215Z,100101
2018-02-06T08:48:05.675Z,100095
2018-02-06T08:49:11.783Z,100095
2018-02-06T08:50:16.702Z,100101
2018-02-06T08:51:21.885Z,100101
2018-02-06T08:52:27.695Z,100095
2018-02-06T08:53:33.170Z,100084
2018-02-06T08:54:38.797Z,100081
2018-02-06T08:55:44.261Z,100081
2018-02-06T08:56:48.600Z,100075
2018-02-06T08:57:54.528Z,100087
2018-02-06T08:58:59.704Z,100087
2018-02-06T09:00:05.170Z,100081
2018-02-06T09:01:10.331Z,100087
2018-02-06T09:02:15.508Z,100059
2018-02-06T09:03:20.970Z,100087
2018-02-06T09:04:26.365Z,100064
2018-02-06T09:05:30.990Z,100078
2018-02-06T09:06:36.536Z,100070
2018-02-06T09:07:41.452Z,100070
2018-02-06T09:08:46.068Z,100067
2018-02-06T09:09:51.483Z,100059
2018-02-06T09:10:56.720Z,100059
2018-02-06T09:12:02.192Z,100062
2018-02-06T09:13:06.855Z,100070
2018-02-06T09:14:12.043Z,100070
2018-02-06T09:15:17.256Z,100070
2018-02-06T09:16:23.094Z,100067
2018-02-06T09:17:28.332Z,100064
2018-02-06T09:18:33.583Z,100064
2018-02-06T09:19:38.488Z,100059
2018-02-06T09:20:44.151Z,100070
2018-02-06T09:21:50.172Z,100070
2018-02-06T09:22:55.635Z,100064
2018-02-06T09:24:01.327Z,100053
2018-02-06T09:25:07.086Z,100053
2018-02-06T09:26:12.265Z,100053
2018-02-06T09:27:17.200Z,100059
2018-02-06T09:28:22.363Z,100059
2018-02-06T09:29:27.252Z,100050
2018-02-06T09:30:33.179Z,100044
2018-02-06T09:31:38.404Z,100041
2018-02-06T09:32:43.610Z,100053
2018-02-06T09:33:49.383Z,100053
2018-02-06T09:34:54.278Z,100044
2018-02-06T09:35:59.747Z,100041
2018-02-06T09:37:05.176Z,100044
2018-02-06T09:38:10.638Z,100035
2018-02-06T09:39:15.848Z,100038
2018-02-06T09:40:21.564Z,100041
2018-02-06T09:41:26.794Z,100041
2018-02-06T09:42:32.528Z,100044
2018-02-06T09:43:36.582Z,100035
2018-02-06T09:44:41.768Z,100035
2018-02-06T09:45:47.474Z,100041
2018-02-06T09:46:52.942Z,100033
2018-02-06T09:47:58.451Z,100047
2018-02-06T09:49:04.259Z,100033
2018-02-06T09:50:08.894Z,100035
2018-02-06T09:51:14.084Z,100041
2018-02-06T09:52:19.341Z,100041
2018-02-06T09:53:25.145Z,100030
2018-02-06T09:54:30.686Z,100041
2018-02-06T09:55:35.872Z,100050
2018-02-06T09:56:41.064Z,100038
2018-02-06T09:57:46.773Z,100041
2018-02-06T09:58:51.711Z,100053
2018-02-06T09:59:57.175Z,100047
2018-02-06T10:01:02.742Z,100059
2018-02-06T10:02:07.622Z,100050
2018-02-06T10:03:13.128Z,100056
2018-02-06T10:04:18.613Z,100044
2018-02-06T10:05:23.815Z,100044
2018-02-06T10:06:29.379Z,100038
2018-02-06T10:07:34.582Z,100044
2018-02-06T10:08:39.759Z,100038
2018-02-06T10:09:45.515Z,100038
2018-02-06T10:10:50.717Z,100038
2018-02-06T10:11:56.186Z,100033
2018-02-06T10:13:01.923Z,100033
2018-02-06T10:14:07.106Z,100035
2018-02-06T10:15:12.576Z,100038
2018-02-06T10:16:17.752Z,100030
2018-02-06T10:17:22.972Z,100038
2018-02-06T10:18:28.344Z,100038
2018-02-06T10:19:33.806Z,100030
2018-02-06T10:20:38.978Z,100027
2018-02-06T10:21:43.726Z,100038
2018-02-06T10:22:48.828Z,100018
2018-02-06T10:23:54.291Z,100024
2018-02-06T10:24:59.718Z,100018
2018-02-06T10:26:04.596Z,100027
2018-02-06T10:27:09.780Z,100030
2018-02-06T10:28:15.499Z,100024
2018-02-06T10:29:21.295Z,100033
2018-02-06T10:30:27.027Z,100015
2018-02-06T10:31:32.472Z,100021
2018-02-06T10:32:37.631Z,100027
2018-02-06T10:33:43.370Z,100024
2018-02-06T10:34:48.481Z,100018
2018-02-06T10:35:53.646Z,100018
2018-02-06T10:36:59.070Z,100018
2018-02-06T10:38:04.533Z,100012
2018-02-06T10:39:09.708Z,100012
2018-02-06T10:40:15.275Z,100006
2018-02-06T10:41:19.887Z,100015
2018-02-06T10:42:39.989Z,100009
2018-02-06T10:43:45.465Z,100009
2018-02-06T10:44:50.354Z,100009
2018-02-06T10:45:55.794Z,100004
2018-02-06T10:47:01.266Z,99998
2018-02-06T10:48:06.445Z,100009
2018-02-06T10:49:11.411Z,99992
2018-02-06T10:50:16.919Z,99995
2018-02-06T10:51:22.406Z,99986
2018-02-06T10:52:28.435Z,99986
2018-02-06T10:53:33.828Z,99998
2018-02-06T10:54:39.519Z,99992
2018-02-06T10:55:44.697Z,99998
2018-02-06T10:56:50.185Z,99989
2018-02-06T10:57:55.583Z,99992
2018-02-06T10:59:00.519Z,99995
2018-02-06T11:00:05.981Z,100001
2018-02-06T11:01:11.243Z,100004
2018-02-06T11:02:16.119Z,99992
2018-02-06T11:03:21.598Z,99989
2018-02-06T11:04:27.176Z,99995
2018-02-06T11:05:32.343Z,99998
2018-02-06T11:06:38.069Z,99986
2018-02-06T11:07:42.992Z,100001
2018-02-06T11:08:47.892Z,99989
2018-02-06T11:09:53.036Z,99995
2018-02-06T11:10:58.260Z,99986
2018-02-06T11:12:03.155Z,99989
2018-02-06T11:13:08.014Z,99992
2018-02-06T11:14:13.176Z,99983
2018-02-06T11:15:18.638Z,99998
2018-02-06T11:16:24.416Z,100001
2018-02-06T11:17:29.329Z,99989
2018-02-06T11:18:35.370Z,99986
2018-02-06T11:19:40.542Z,99989
2018-02-06T11:20:45.987Z,99980
2018-02-06T11:21:51.626Z,99975
2018-02-06T11:22:56.824Z,99980
2018-02-06T11:24:01.734Z,99977
2018-02-06T11:25:07.173Z,99977
2018-02-06T11:26:12.669Z,99972
2018-02-06T11:27:18.137Z,99969
2018-02-06T11:28:23.587Z,99977
2018-02-06T11:29:28.771Z,99975
2018-02-06T11:30:34.496Z,99964
2018-02-06T11:31:39.392Z,99972
2018-02-06T11:32:44.860Z,99967
2018-02-06T11:33:50.581Z,99967
2018-02-06T11:34:55.752Z,99961
2018-02-06T11:36:01.220Z,99972
2018-02-06T11:37:06.630Z,99961
2018-02-06T11:38:12.140Z,99958
2018-02-06T11:39:17.377Z,99964
2018-02-06T11:40:22.277Z,99972
2018-02-06T11:41:27.726Z,99967
2018-02-06T11:42:32.706Z,99969
2018-02-06T11:43:37.876Z,99958
2018-02-06T11:44:42.757Z,99958
2018-02-06T11:45:48.485Z,99967
2018-02-06T11:46:53.395Z,99955
2018-02-06T11:47:58.858Z,99967
2018-02-06T11:49:04.291Z,99949
2018-02-06T11:50:09.497Z,99964
2018-02-06T11:51:15.159Z,99955
2018-02-06T11:52:20.584Z,99952
2018-02-06T11:53:25.748Z,99949
2018-02-06T11:54:31.203Z,99944
2018-02-06T11:55:36.663Z,99955
2018-02-06T11:56:41.551Z,99952
2018-02-06T11:57:47.415Z,99949
2018-02-06T11:58:52.600Z,99941
2018-02-06T11:59:58.063Z,99952
2018-02-06T12:01:03.519Z,99946
2018-02-06T12:02:09.004Z,99949
2018-02-06T12:03:14.811Z,99952
2018-02-06T12:04:20.234Z,99932
2018-02-06T12:05:25.399Z,99938
2018-02-06T12:06:30.818Z,99944
2018-02-06T12:07:36.271Z,99941
2018-02-06T12:08:41.738Z,99935
2018-02-06T12:09:47.545Z,99926
2018-02-06T12:10:52.438Z,99929
2018-02-06T12:11:57.902Z,99932
2018-02-06T12:13:03.040Z,99938
2018-02-06T12:14:07.934Z,99932
2018-02-06T12:15:12.812Z,99935
2018-02-06T12:16:17.794Z,99926
2018-02-06T12:17:23.271Z,99935
2018-02-06T12:18:28.413Z,99935
2018-02-06T12:19:33.874Z,99920
2018-02-06T12:20:39.049Z,99920
2018-02-06T12:21:44.020Z,99926
2018-02-06T12:22:49.206Z,99915
2018-02-06T12:23:54.393Z,99909
2018-02-06T12:25:00.130Z,99906
2018-02-06T12:26:05.326Z,99903
2018-02-06T12:27:09.946Z,99915
2018-02-06T12:28:15.643Z,99915
2018-02-06T12:29:21.117Z,99909
2018-02-06T12:30:26.401Z,99903
2018-02-06T12:31:31.848Z,99915
2018-02-06T12:32:37.047Z,99909
2018-02-06T12:33:42.461Z,99900
2018-02-06T12:34:47.925Z,99903
2018-02-06T12:35:52.828Z,99888
2018-02-06T12:36:58.252Z,99883
2018-02-06T12:38:03.448Z,99885
2018-02-06T12:39:08.907Z,99874
2018-02-06T12:40:14.616Z,99885
2018-02-06T12:41:19.514Z,99880
2018-02-06T12:42:39.972Z,99877
2018-02-06T12:43:45.428Z,99877
2018-02-06T12:44:50.597Z,99880
2018-02-06T12:45:56.317Z,99883
2018-02-06T12:47:01.498Z,99874
2018-02-06T12:48:06.676Z,99877
2018-02-06T12:49:12.582Z,99883
2018-02-06T12:50:18.023Z,99880
2018-02-06T12:51:23.397Z,99883
2018-02-06T12:52:43.479Z,99874
2018-02-06T12:53:48.658Z,99880
2018-02-06T12:54:54.356Z,99865
2018-02-06T12:55:59.527Z,99865
2018-02-06T12:57:04.716Z,99862
2018-02-06T12:58:10.416Z,99862
2018-02-06T12:59:15.320Z,99865
2018-02-06T13:00:20.771Z,99862
2018-02-06T13:01:26.701Z,99856
2018-02-06T13:02:31.596Z,99851
2018-02-06T13:03:37.498Z,99856
2018-02-06T13:04:42.987Z,99851
2018-02-06T13:05:48.448Z,99859
2018-02-06T13:06:54.462Z,99856
2018-02-06T13:07:59.646Z,99851
2018-02-06T13:09:04.829Z,99856
2018-02-06T13:10:10.519Z,99856
2018-02-06T13:11:15.977Z,99851
2018-02-06T13:12:21.158Z,99856
2018-02-06T13:13:26.429Z,99854
2018-02-06T13:14:31.621Z,99854
2018-02-06T13:15:37.034Z,99851
2018-02-06T13:16:42.481Z,99862
2018-02-06T13:17:47.650Z,99854
2018-02-06T13:18:52.787Z,99851
2018-02-06T13:19:57.973Z,99856
2018-02-06T13:21:02.576Z,99845
2018-02-06T13:22:08.278Z,99854
2018-02-06T13:23:13.763Z,99845
2018-02-06T13:24:19.214Z,99839
2018-02-06T13:25:24.872Z,99845
2018-02-06T13:26:29.501Z,99839
2018-02-06T13:27:34.730Z,99845
2018-02-06T13:28:40.200Z,99845
2018-02-06T13:29:45.094Z,99842
2018-02-06T13:30:50.838Z,99833
2018-02-06T13:31:56.309Z,99833
2018-02-06T13:33:01.483Z,99833
2018-02-06T13:34:06.908Z,99836
2018-02-06T13:35:12.363Z,99833
2018-02-06T13:36:17.842Z,99845
2018-02-06T13:37:23.544Z,99839
2018-02-06T13:38:29.009Z,99842
2018-02-06T13:39:34.433Z,99833
2018-02-06T13:40:39.880Z,99833
2018-02-06T13:41:45.326Z,99823
2018-02-06T13:42:51.060Z,99827
2018-02-06T13:43:56.297Z,99820
2018-02-06T13:45:01.774Z,99823
2018-02-06T13:46:07.925Z,99823
2018-02-06T13:47:13.104Z,99823
2018-02-06T13:48:18.279Z,99817
2018-02-06T13:49:23.706Z,99820
2018-02-06T13:50:28.899Z,99811
2018-02-06T13:51:34.628Z,99811
2018-02-06T13:52:40.089Z,99802
2018-02-06T13:53:45.460Z,99817
2018-02-06T13:54:51.192Z,99811
2018-02-06T13:55:56.670Z,99802
2018-02-06T13:57:02.115Z,99796
2018-02-06T13:58:07.541Z,99799
2018-02-06T13:59:12.992Z,99802
2018-02-06T14:00:18.440Z,99805
2018-02-06T14:01:24.255Z,99788
2018-02-06T14:02:28.884Z,99791
2018-02-06T14:03:34.352Z,99793
2018-02-06T14:04:39.827Z,99788
2018-02-06T14:05:45.277Z,99788
2018-02-06T14:06:50.835Z,99774
2018-02-06T14:07:56.055Z,99786
2018-02-06T14:09:01.340Z,99786
2018-02-06T14:10:07.068Z,99791
2018-02-06T14:11:12.530Z,99788
2018-02-06T14:12:18.003Z,99786
2018-02-06T14:13:23.313Z,99786
2018-02-06T14:14:28.535Z,99786
2018-02-06T14:15:34.411Z,99788
2018-02-06T14:16:39.653Z,99796
2018-02-06T14:17:44.556Z,99796
2018-02-06T14:18:50.064Z,99793
2018-02-06T14:19:55.169Z,99796
2018-02-06T14:21:00.088Z,99783
2018-02-06T14:22:05.554Z,99791
2018-02-06T14:23:10.729Z,99791
2018-02-06T14:24:16.199Z,99783
2018-02-06T14:25:21.710Z,99783
2018-02-06T14:26:26.618Z,99783
2018-02-06T14:27:32.062Z,99780
2018-02-06T14:28:36.372Z,99780
2018-02-06T14:29:41.859Z,99774
2018-02-06T14:30:47.281Z,99774
2018-02-06T14:31:52.748Z,99777
2018-02-06T14:32:58.222Z,99771
2018-02-06T14:34:04.028Z,99771
2018-02-06T14:35:09.503Z,99765
2018-02-06T14:36:14.403Z,99760
2018-02-06T14:37:19.840Z,99757
2018-02-06T14:38:25.018Z,99760
2018-02-06T14:39:29.880Z,99763
2018-02-06T14:40:35.334Z,99754
2018-02-06T14:41:40.790Z,99754
2018-02-06T14:42:46.095Z,99768
2018-02-06T14:43:51.307Z,99757
2018-02-06T14:44:56.780Z,99763
2018-02-06T14:46:01.934Z,99751
2018-02-06T14:47:07.105Z,99765
2018-02-06T14:48:12.291Z,99768
2018-02-06T14:49:18.321Z,99774
2018-02-06T14:50:23.818Z,99763
2018-02-06T14:51:29.258Z,99760
2018-02-06T14:52:34.734Z,99763
2018-02-06T14:53:40.200Z,99763
2018-02-06T14:54:45.728Z,99765
2018-02-06T14:55:51.239Z,99763
2018-02-06T14:56:56.704Z,99757
2018-02-06T14:58:01.888Z,99765
2018-02-06T14:59:07.020Z,99757
2018-02-06T15:00:12.485Z,99760
2018-02-06T15:01:18.401Z,99763
2018-02-06T15:02:23.575Z,99774
2018-02-06T15:03:29.397Z,99754
2018-02-06T15:04:35.198Z,99763
2018-02-06T15:05:40.386Z,99768
2018-02-06T15:06:45.805Z,99757
2018-02-06T15:07:51.294Z,99760
2018-02-06T15:08:56.796Z,99765
2018-02-06T15:10:01.990Z,99757
2018-02-06T15:11:07.479Z,99757
2018-02-06T15:12:12.947Z,99760
2018-02-06T15:13:18.390Z,99765
2018-02-06T15:14:23.894Z,99754
2018-02-06T15:15:29.136Z,99765
2018-02-06T15:16:34.611Z,99754
2018-02-06T15:17:40.021Z,99754
2018-02-06T15:18:45.790Z,99754
2018-02-06T15:19:50.898Z,99742
2018-02-06T15:20:56.090Z,99754
2018-02-06T15:22:01.769Z,99742
2018-02-06T15:23:06.973Z,99754
2018-02-06T15:24:11.585Z,99751
2018-02-06T15:25:17.122Z,99748
2018-02-06T15:26:22.300Z,99760
2018-02-06T15:27:27.854Z,99757
2018-02-06T15:28:33.323Z,99754
2018-02-06T15:29:38.235Z,99763
2018-02-06T15:30:43.497Z,99760
2018-02-06T15:31:48.976Z,99760
2018-02-06T15:32:53.903Z,99754
2018-02-06T15:33:59.662Z,99763
2018-02-06T15:35:04.008Z,99754
2018-02-06T15:36:09.193Z,99748
2018-02-06T15:37:14.624Z,99751
2018-02-06T15:38:19.513Z,99751
2018-02-06T15:39:25.729Z,99760
2018-02-06T15:40:30.619Z,99751
2018-02-06T15:41:35.551Z,99757
2018-02-06T15:42:40.989Z,99754